createdAt,value
2023-03-28T00:00:02.121Z,99912.28
2023-03-28T00:02:38.615Z,99906.91
2023-03-28T00:05:05.361Z,99911.53
2023-03-28T00:07:34.524Z,99924.22
2023-03-28T00:10:01.872Z,99912.72
2023-03-28T00:12:28.584Z,99929.22
2023-03-28T00:14:57.596Z,99929.97
2023-03-28T00:17:24.645Z,99923.09
2023-03-28T00:19:56.251Z,99935.53
2023-03-28T00:22:25.153Z,99931.91
2023-03-28T00:24:53.977Z,99947.59
2023-03-28T00:27:20.583Z,99943.44
2023-03-28T00:29:47.247Z,99942.69
2023-03-28T00:32:13.804Z,99959.09
2023-03-28T00:34:42.912Z,99956.44
2023-03-28T00:37:10.767Z,99963.56
2023-03-28T00:39:37.686Z,99961.41
2023-03-28T00:42:04.567Z,99969.00
2023-03-28T00:44:45.355Z,99966.94
2023-03-28T00:47:30.990Z,99969.78
2023-03-28T00:50:03.040Z,99986.63
2023-03-28T00:52:34.574Z,99998.13
2023-03-28T00:55:01.176Z,99992.47
2023-03-28T00:57:30.308Z,99998.34
2023-03-28T00:59:56.968Z,100000.03
2023-03-28T01:02:24.059Z,100004.09
2023-03-28T01:04:55.298Z,100008.78
2023-03-28T01:07:22.789Z,100011.97
2023-03-28T01:09:51.641Z,100012.28
2023-03-28T01:12:18.368Z,100020.41
2023-03-28T01:14:47.789Z,100020.94
2023-03-28T01:17:16.183Z,100018.13
2023-03-28T01:19:47.971Z,100016.13
2023-03-28T01:22:33.301Z,100023.81
2023-03-28T01:25:16.683Z,100031.13
2023-03-28T01:28:05.633Z,100025.53
2023-03-28T01:30:49.195Z,100020.81
2023-03-28T01:33:51.025Z,100023.38
2023-03-28T01:36:33.987Z,100029.25
2023-03-28T01:39:24.455Z,100029.97
2023-03-28T01:41:56.769Z,100042.66
2023-03-28T01:44:34.231Z,100040.81
2023-03-28T01:47:10.003Z,100046.50
2023-03-28T01:49:46.270Z,100051.81
2023-03-28T01:52:28.344Z,100050.19
2023-03-28T01:54:55.664Z,100050.88
2023-03-28T01:57:27.309Z,100052.03
2023-03-28T02:00:04.135Z,100043.59
2023-03-28T02:02:39.161Z,100056.88
2023-03-28T02:05:23.851Z,100063.66
2023-03-28T02:07:54.663Z,100074.09
2023-03-28T02:10:32.748Z,100065.53
2023-03-28T02:13:04.175Z,100069.84
2023-03-28T02:15:48.140Z,100088.34
2023-03-28T02:18:39.407Z,100067.97
2023-03-28T02:21:50.822Z,100064.81
2023-03-28T02:24:52.204Z,100093.34
2023-03-28T02:27:39.550Z,100075.84
2023-03-28T02:30:29.084Z,100075.03
2023-03-28T02:33:01.678Z,100094.22
2023-03-28T02:35:30.894Z,100089.50
2023-03-28T02:38:07.037Z,100093.72
2023-03-28T02:40:36.735Z,100088.53
2023-03-28T02:43:05.858Z,100096.75
2023-03-28T02:45:44.045Z,100093.03
2023-03-28T02:48:13.809Z,100107.84
2023-03-28T02:50:49.637Z,100101.41
2023-03-28T02:53:27.244Z,100111.69
2023-03-28T02:56:04.992Z,100096.69
2023-03-28T02:58:50.229Z,100106.03
2023-03-28T03:01:18.243Z,100112.03
2023-03-28T03:03:45.906Z,100122.09
2023-03-28T03:06:14.953Z,100115.41
2023-03-28T03:08:41.497Z,100133.47
2023-03-28T03:11:08.184Z,100145.34
2023-03-28T03:13:34.895Z,100149.38
2023-03-28T03:16:04.118Z,100148.75
2023-03-28T03:18:32.479Z,100157.19
2023-03-28T03:21:02.090Z,100160.28
2023-03-28T03:23:31.255Z,100153.06
2023-03-28T03:26:02.941Z,100158.28
2023-03-28T03:28:38.018Z,100163.78
2023-03-28T03:31:06.863Z,100168.75
2023-03-28T03:33:55.005Z,100173.00
2023-03-28T03:36:27.293Z,100167.91
2023-03-28T03:38:54.114Z,100187.44
2023-03-28T03:41:22.677Z,100196.78
2023-03-28T03:43:49.354Z,100192.00
2023-03-28T03:46:16.065Z,100197.31
2023-03-28T03:48:49.450Z,100185.09
2023-03-28T03:51:17.447Z,100200.56
2023-03-28T03:53:50.651Z,100192.53
2023-03-28T03:56:21.241Z,100195.19
2023-03-28T03:58:58.671Z,100199.84
2023-03-28T04:01:35.649Z,100203.63
2023-03-28T04:04:19.250Z,100211.00
2023-03-28T04:07:04.573Z,100209.19
2023-03-28T04:09:34.134Z,100212.44
2023-03-28T04:12:07.773Z,100216.53
2023-03-28T04:14:45.104Z,100206.75
2023-03-28T04:17:44.501Z,100215.19
2023-03-28T04:20:17.758Z,100230.50
2023-03-28T04:23:06.012Z,100225.66
2023-03-28T04:25:34.199Z,100220.03
2023-03-28T04:28:11.810Z,100233.91
2023-03-28T04:30:53.370Z,100236.75
2023-03-28T04:33:40.127Z,100241.69
2023-03-28T04:36:09.552Z,100246.22
2023-03-28T04:38:36.524Z,100246.97
2023-03-28T04:41:35.185Z,100251.63
2023-03-28T04:44:02.064Z,100250.97
2023-03-28T04:46:32.466Z,100250.31
2023-03-28T04:49:11.038Z,100257.19
2023-03-28T04:51:37.761Z,100258.94
2023-03-28T04:54:04.504Z,100265.16
2023-03-28T04:56:48.342Z,100268.16
2023-03-28T04:59:21.612Z,100262.59
2023-03-28T05:01:54.273Z,100279.13
2023-03-28T05:04:40.705Z,100260.56
2023-03-28T05:07:08.703Z,100284.34
2023-03-28T05:09:39.934Z,100286.03
2023-03-28T05:12:07.572Z,100277.69
2023-03-28T05:14:50.430Z,100282.59
2023-03-28T05:17:17.327Z,100272.69
2023-03-28T05:20:09.032Z,100278.56
2023-03-28T05:22:47.479Z,100301.31
2023-03-28T05:25:14.142Z,100277.19
2023-03-28T05:27:41.207Z,100277.72
2023-03-28T05:30:08.130Z,100306.63
2023-03-28T05:32:37.709Z,100294.50
2023-03-28T05:35:05.840Z,100320.13
2023-03-28T05:37:43.552Z,100302.47
2023-03-28T05:40:12.288Z,100312.50
2023-03-28T05:42:41.163Z,100307.81
2023-03-28T05:45:16.419Z,100319.41
2023-03-28T05:47:56.958Z,100326.59
2023-03-28T05:50:24.445Z,100323.47
2023-03-28T05:52:58.458Z,100329.13
2023-03-28T05:55:25.262Z,100337.25
2023-03-28T05:57:52.141Z,100329.47
2023-03-28T06:00:20.422Z,100341.78
2023-03-28T06:02:51.997Z,100357.13
2023-03-28T06:05:22.632Z,100355.22
2023-03-28T06:07:49.641Z,100344.81
2023-03-28T06:10:18.160Z,100366.50
2023-03-28T06:12:56.256Z,100372.66
2023-03-28T06:15:23.710Z,100369.38
2023-03-28T06:17:52.651Z,100361.63
2023-03-28T06:20:21.769Z,100369.78
2023-03-28T06:22:53.167Z,100383.28
2023-03-28T06:25:19.933Z,100373.88
2023-03-28T06:27:46.552Z,100376.38
2023-03-28T06:30:13.670Z,100381.44
2023-03-28T06:32:47.532Z,100380.25
2023-03-28T06:35:14.916Z,100395.53
2023-03-28T06:37:41.594Z,100392.41
2023-03-28T06:40:09.121Z,100402.84
2023-03-28T06:42:38.214Z,100412.56
2023-03-28T06:45:36.911Z,100397.69
2023-03-28T06:48:07.634Z,100413.75
2023-03-28T06:50:52.784Z,100412.75
2023-03-28T06:53:21.136Z,100412.88
2023-03-28T06:55:49.571Z,100420.69
2023-03-28T06:58:18.952Z,100420.81
2023-03-28T07:00:53.939Z,100422.97
2023-03-28T07:03:43.738Z,100417.44
2023-03-28T07:06:12.958Z,100420.78
2023-03-28T07:08:39.803Z,100425.13
2023-03-28T07:11:06.848Z,100448.59
2023-03-28T07:13:33.600Z,100426.31
2023-03-28T07:16:11.375Z,100415.50
2023-03-28T07:18:38.508Z,100431.16
2023-03-28T07:21:09.134Z,100432.44
2023-03-28T07:23:36.337Z,100441.50
2023-03-28T07:26:03.122Z,100428.31
2023-03-28T07:28:29.969Z,100411.72
2023-03-28T07:30:56.676Z,100437.63
2023-03-28T07:33:30.877Z,100432.50
2023-03-28T07:36:10.271Z,100438.53
2023-03-28T07:38:37.172Z,100432.00
2023-03-28T07:41:04.062Z,100430.25
2023-03-28T07:43:31.107Z,100436.69
2023-03-28T07:46:06.498Z,100451.69
2023-03-28T07:48:36.276Z,100436.03
2023-03-28T07:51:04.140Z,100439.41
2023-03-28T07:53:33.133Z,100440.06
2023-03-28T07:56:00.345Z,100438.28
2023-03-28T07:58:43.140Z,100437.91
2023-03-28T08:01:12.920Z,100428.38
2023-03-28T08:03:46.409Z,100435.78
2023-03-28T08:06:31.106Z,100431.34
2023-03-28T08:09:01.825Z,100426.75
2023-03-28T08:11:35.212Z,100431.06
2023-03-28T08:14:04.706Z,100428.75
2023-03-28T08:16:36.888Z,100427.47
2023-03-28T08:19:10.582Z,100430.91
2023-03-28T08:22:02.653Z,100429.63
2023-03-28T08:24:36.414Z,100434.03
2023-03-28T08:27:15.774Z,100439.78
2023-03-28T08:29:47.678Z,100419.63
2023-03-28T08:32:14.500Z,100437.88
2023-03-28T08:34:43.500Z,100443.88
2023-03-28T08:37:21.937Z,100444.34
2023-03-28T08:39:50.002Z,100444.50
2023-03-28T08:42:17.844Z,100441.44
2023-03-28T08:45:05.730Z,100435.44
2023-03-28T08:47:32.739Z,100445.97
2023-03-28T08:49:59.586Z,100445.41
2023-03-28T08:52:26.430Z,100441.41
2023-03-28T08:54:56.293Z,100418.66
2023-03-28T08:57:30.641Z,100422.91
2023-03-28T09:00:09.185Z,100416.50
2023-03-28T09:02:36.326Z,100411.88
2023-03-28T09:05:22.488Z,100407.72
2023-03-28T09:07:59.923Z,100417.03
2023-03-28T09:10:32.911Z,100407.94
2023-03-28T09:13:22.517Z,100413.84
2023-03-28T09:15:52.280Z,100418.03
2023-03-28T09:18:23.883Z,100407.91
2023-03-28T09:20:54.831Z,100420.31
2023-03-28T09:23:39.158Z,100395.03
2023-03-28T09:26:36.367Z,100405.00
2023-03-28T09:29:12.157Z,100411.91
2023-03-28T09:31:45.961Z,100427.66
2023-03-28T09:34:23.067Z,100420.13
2023-03-28T09:36:51.828Z,100417.94
2023-03-28T09:39:40.729Z,100428.00
2023-03-28T09:42:08.021Z,100368.63
2023-03-28T09:44:57.594Z,100408.66
2023-03-28T09:48:04.055Z,100427.41
2023-03-28T09:50:38.568Z,100439.84
2023-03-28T09:53:07.639Z,100427.63
2023-03-28T09:55:35.602Z,100424.56
2023-03-28T09:58:06.824Z,100445.56
2023-03-28T10:00:50.500Z,100407.50
2023-03-28T10:03:36.243Z,100419.78
2023-03-28T10:06:19.886Z,100450.69
2023-03-28T10:08:52.362Z,100427.34
2023-03-28T10:11:27.441Z,100428.34
2023-03-28T10:13:57.604Z,100424.97
2023-03-28T10:16:28.070Z,100406.13
2023-03-28T10:19:15.877Z,100407.00
2023-03-28T10:22:41.364Z,100424.16
2023-03-28T10:25:08.815Z,100422.88
2023-03-28T10:27:39.088Z,100410.09
2023-03-28T10:30:09.610Z,100408.63
2023-03-28T10:32:41.110Z,100403.66
2023-03-28T10:35:31.117Z,100404.94
2023-03-28T10:38:24.916Z,100405.19
2023-03-28T10:41:12.810Z,100401.44
2023-03-28T10:44:00.592Z,100425.19
2023-03-28T10:46:41.184Z,100410.91
2023-03-28T10:49:17.434Z,100403.69
2023-03-28T10:51:51.357Z,100415.31
2023-03-28T10:54:36.792Z,100424.44
2023-03-28T10:57:06.894Z,100429.97
2023-03-28T10:59:38.076Z,100426.63
2023-03-28T11:02:24.931Z,100422.78
2023-03-28T11:04:52.174Z,100414.38
2023-03-28T11:07:43.569Z,100403.78
2023-03-28T11:10:40.497Z,100412.78
2023-03-28T11:13:26.065Z,100405.22
2023-03-28T11:16:11.628Z,100415.16
2023-03-28T11:18:57.305Z,100426.25
2023-03-28T11:21:33.316Z,100416.44
2023-03-28T11:24:05.868Z,100418.63
2023-03-28T11:26:49.572Z,100411.56
2023-03-28T11:29:19.190Z,100410.56
2023-03-28T11:31:47.059Z,100405.06
2023-03-28T11:34:15.431Z,100404.66
2023-03-28T11:36:42.244Z,100406.88
2023-03-28T11:39:22.917Z,100416.38
2023-03-28T11:41:54.042Z,100422.53
2023-03-28T11:44:33.763Z,100420.28
2023-03-28T11:47:06.797Z,100418.69
2023-03-28T11:49:34.671Z,100410.09
2023-03-28T11:52:12.476Z,100406.97
2023-03-28T11:54:44.632Z,100413.78
2023-03-28T11:57:31.715Z,100421.31
2023-03-28T12:00:06.954Z,100416.66
2023-03-28T12:02:44.423Z,100411.44
2023-03-28T12:05:47.748Z,100435.09
2023-03-28T12:08:22.645Z,100424.38
2023-03-28T12:10:52.354Z,100409.34
2023-03-28T12:13:47.486Z,100410.78
2023-03-28T12:16:21.401Z,100421.00
2023-03-28T12:18:51.565Z,100427.91
2023-03-28T12:21:42.682Z,100430.19
2023-03-28T12:24:27.815Z,100404.88
2023-03-28T12:27:12.907Z,100424.66
2023-03-28T12:30:00.615Z,100410.81
2023-03-28T12:32:34.804Z,100441.78
2023-03-28T12:35:12.306Z,100431.75
2023-03-28T12:38:02.134Z,100428.53
2023-03-28T12:40:42.798Z,100433.84
2023-03-28T12:43:10.764Z,100431.03
2023-03-28T12:45:41.569Z,100415.44
2023-03-28T12:48:15.750Z,100427.72
2023-03-28T12:50:45.568Z,100423.63
2023-03-28T12:53:13.030Z,100425.91
2023-03-28T12:55:45.800Z,100432.66
2023-03-28T12:58:22.476Z,100445.72
2023-03-28T13:00:58.043Z,100423.63
2023-03-28T13:04:03.842Z,100434.81
2023-03-28T13:06:48.917Z,100456.84
2023-03-28T13:09:34.021Z,100463.78
2023-03-28T13:12:03.528Z,100469.78
2023-03-28T13:14:32.383Z,100472.25
2023-03-28T13:17:01.743Z,100473.63
2023-03-28T13:19:43.835Z,100470.50
2023-03-28T13:22:40.451Z,100485.22
2023-03-28T13:25:21.089Z,100486.69
2023-03-28T13:27:51.360Z,100487.75
2023-03-28T13:30:27.701Z,100494.25
2023-03-28T13:32:57.509Z,100532.19
2023-03-28T13:35:35.636Z,100543.47
2023-03-28T13:38:16.208Z,100528.84
2023-03-28T13:41:06.350Z,100530.44
2023-03-28T13:43:35.030Z,100566.41
2023-03-28T13:46:21.410Z,100546.38
2023-03-28T13:48:54.169Z,100543.84
2023-03-28T13:51:24.703Z,100540.00
2023-03-28T13:53:53.752Z,100539.03
2023-03-28T13:56:24.958Z,100542.53
2023-03-28T13:58:55.535Z,100554.41
2023-03-28T14:01:24.677Z,100554.53
2023-03-28T14:03:56.380Z,100535.50
2023-03-28T14:06:27.369Z,100553.88
2023-03-28T14:09:02.577Z,100564.19
2023-03-28T14:11:30.605Z,100556.97
2023-03-28T14:14:36.124Z,100555.53
2023-03-28T14:17:06.904Z,100563.19
2023-03-28T14:19:38.237Z,100558.44
2023-03-28T14:22:08.684Z,100557.53
2023-03-28T14:24:37.646Z,100563.94
2023-03-28T14:27:09.784Z,100552.81
2023-03-28T14:29:51.126Z,100560.00
2023-03-28T14:32:21.974Z,100556.69
2023-03-28T14:34:53.884Z,100579.13
2023-03-28T14:37:22.571Z,100556.88
2023-03-28T14:39:50.132Z,100563.72
2023-03-28T14:42:20.093Z,100561.00
2023-03-28T14:44:47.976Z,100556.97
2023-03-28T14:47:21.568Z,100534.41
2023-03-28T14:49:48.262Z,100557.66
2023-03-28T14:52:18.777Z,100561.38
2023-03-28T14:54:46.749Z,100563.84
2023-03-28T14:57:16.760Z,100552.41
2023-03-28T14:59:48.106Z,100549.22
2023-03-28T15:02:20.834Z,100557.03
2023-03-28T15:04:47.479Z,100570.38
2023-03-28T15:07:26.496Z,100557.72
2023-03-28T15:10:15.737Z,100581.13
2023-03-28T15:12:45.373Z,100582.97
2023-03-28T15:15:18.196Z,100585.03
2023-03-28T15:17:45.034Z,100591.97
2023-03-28T15:20:14.303Z,100584.25
2023-03-28T15:22:45.370Z,100586.13
2023-03-28T15:25:12.956Z,100599.13
2023-03-28T15:27:39.732Z,100600.94
2023-03-28T15:30:18.815Z,100601.34
2023-03-28T15:32:45.809Z,100601.19
2023-03-28T15:35:31.383Z,100596.69
2023-03-28T15:38:08.573Z,100592.94
2023-03-28T15:40:39.676Z,100610.34
2023-03-28T15:43:25.900Z,100615.22
2023-03-28T15:46:00.939Z,100633.84
2023-03-28T15:48:28.773Z,100627.50
2023-03-28T15:50:56.384Z,100649.06
2023-03-28T15:53:26.031Z,100654.34
2023-03-28T15:55:52.687Z,100682.28
2023-03-28T15:58:20.428Z,100678.41
2023-03-28T16:00:49.093Z,100672.13
2023-03-28T16:03:19.762Z,100665.13
2023-03-28T16:06:09.818Z,100672.69
2023-03-28T16:08:39.265Z,100688.78
2023-03-28T16:11:06.967Z,100690.94
2023-03-28T16:13:36.695Z,100721.97
2023-03-28T16:16:32.686Z,100723.22
2023-03-28T16:19:24.581Z,100720.31
2023-03-28T16:21:53.726Z,100722.31
2023-03-28T16:24:20.639Z,100724.81
2023-03-28T16:26:51.789Z,100743.44
2023-03-28T16:29:18.457Z,100743.19
2023-03-28T16:31:45.211Z,100749.56
2023-03-28T16:34:11.974Z,100749.91
2023-03-28T16:36:38.762Z,100750.75
2023-03-28T16:39:06.359Z,100747.28
2023-03-28T16:41:32.932Z,100759.03
2023-03-28T16:43:59.779Z,100755.97
2023-03-28T16:46:26.556Z,100763.75
2023-03-28T16:48:53.281Z,100773.75
2023-03-28T16:51:20.010Z,100778.84
2023-03-28T16:53:46.805Z,100783.44
2023-03-28T16:56:15.087Z,100787.72
2023-03-28T16:58:44.236Z,100801.97
2023-03-28T17:01:18.941Z,100799.44
2023-03-28T17:03:46.178Z,100800.28
2023-03-28T17:06:16.292Z,100811.69
2023-03-28T17:08:43.607Z,100807.44
2023-03-28T17:11:13.191Z,100809.03
2023-03-28T17:13:40.550Z,100819.69
2023-03-28T17:16:10.061Z,100829.00
2023-03-28T17:18:37.005Z,100838.78
2023-03-28T17:21:04.947Z,100845.81
2023-03-28T17:23:32.898Z,100844.38
2023-03-28T17:26:02.204Z,100840.00
2023-03-28T17:28:31.203Z,100843.00
2023-03-28T17:30:57.987Z,100845.06
2023-03-28T17:33:29.695Z,100862.91
2023-03-28T17:36:14.214Z,100863.91
2023-03-28T17:38:40.984Z,100857.31
2023-03-28T17:41:08.313Z,100853.16
2023-03-28T17:43:34.899Z,100862.34
2023-03-28T17:46:04.036Z,100874.66
2023-03-28T17:48:31.408Z,100874.59
2023-03-28T17:50:58.974Z,100882.00
2023-03-28T17:53:25.591Z,100890.75
2023-03-28T17:55:54.574Z,100894.94
2023-03-28T17:58:21.238Z,100887.84
2023-03-28T18:00:48.540Z,100896.84
2023-03-28T18:03:17.782Z,100903.41
2023-03-28T18:06:00.897Z,100915.09
2023-03-28T18:08:31.038Z,100923.00
2023-03-28T18:11:06.089Z,100914.69
2023-03-28T18:13:35.489Z,100926.94
2023-03-28T18:16:09.652Z,100923.66
2023-03-28T18:18:38.823Z,100922.84
2023-03-28T18:21:07.513Z,100934.69
2023-03-28T18:23:38.799Z,100935.31
2023-03-28T18:26:08.514Z,100934.69
2023-03-28T18:28:37.740Z,100931.84
2023-03-28T18:31:08.064Z,100938.53
2023-03-28T18:33:36.882Z,100935.00
2023-03-28T18:36:06.039Z,100941.47
2023-03-28T18:38:39.161Z,100947.78
2023-03-28T18:41:09.167Z,100947.69
2023-03-28T18:43:37.349Z,100952.13
2023-03-28T18:46:04.466Z,100952.72
2023-03-28T18:48:34.498Z,100948.88
2023-03-28T18:51:03.149Z,100944.22
2023-03-28T18:53:30.015Z,100946.28
2023-03-28T18:55:56.710Z,100949.66
2023-03-28T18:58:24.087Z,100944.56
2023-03-28T19:00:58.622Z,100954.94
2023-03-28T19:03:26.964Z,100946.75
2023-03-28T19:05:58.190Z,100947.41
2023-03-28T19:08:28.130Z,100952.28
2023-03-28T19:10:58.064Z,100959.03
2023-03-28T19:13:25.445Z,100963.28
2023-03-28T19:15:59.181Z,100973.19
2023-03-28T19:18:28.740Z,100966.19
2023-03-28T19:20:55.738Z,100963.38
2023-03-28T19:23:25.931Z,100964.50
2023-03-28T19:25:53.348Z,100953.34
2023-03-28T19:28:20.120Z,100960.47
2023-03-28T19:30:49.321Z,100961.44
2023-03-28T19:33:16.301Z,100959.22
2023-03-28T19:35:45.735Z,100953.47
2023-03-28T19:38:12.428Z,100950.59
2023-03-28T19:40:39.138Z,100949.75
2023-03-28T19:43:08.141Z,100947.53
2023-03-28T19:45:34.778Z,100954.84
2023-03-28T19:48:01.569Z,100957.59
2023-03-28T19:50:28.173Z,100965.88
2023-03-28T19:52:54.765Z,100957.19
2023-03-28T19:55:21.384Z,100963.38
2023-03-28T19:57:47.981Z,100962.44
2023-03-28T20:00:14.935Z,100963.50
2023-03-28T20:02:41.917Z,100965.63
2023-03-28T20:05:09.022Z,100958.94
2023-03-28T20:07:38.965Z,100956.47
2023-03-28T20:10:05.858Z,100966.84
2023-03-28T20:12:34.581Z,100948.56
2023-03-28T20:15:01.251Z,100956.81
2023-03-28T20:17:27.849Z,100949.75
2023-03-28T20:19:57.622Z,100953.31
2023-03-28T20:22:25.888Z,100956.59
2023-03-28T20:24:52.530Z,100949.53
2023-03-28T20:27:19.598Z,100956.47
2023-03-28T20:29:46.982Z,100951.75
2023-03-28T20:32:18.111Z,100950.81
2023-03-28T20:34:44.927Z,100961.09
2023-03-28T20:37:14.157Z,100950.59
2023-03-28T20:39:41.862Z,100964.41
2023-03-28T20:42:09.126Z,100960.44
2023-03-28T20:44:38.765Z,100959.22
2023-03-28T20:47:06.584Z,100951.69
2023-03-28T20:49:33.779Z,100965.13
2023-03-28T20:52:02.930Z,100954.53
2023-03-28T20:54:29.546Z,100966.91
2023-03-28T20:56:56.275Z,100959.75
2023-03-28T20:59:23.848Z,100964.94
2023-03-28T21:01:51.615Z,100966.88
2023-03-28T21:04:18.244Z,100966.00
2023-03-28T21:06:45.346Z,100968.56
2023-03-28T21:09:18.169Z,100973.56
2023-03-28T21:11:45.151Z,100969.03
2023-03-28T21:14:12.530Z,100968.50
2023-03-28T21:16:39.181Z,100967.72
2023-03-28T21:19:05.894Z,100963.72
2023-03-28T21:21:34.438Z,100970.84
2023-03-28T21:24:01.724Z,100974.22
2023-03-28T21:26:29.293Z,100970.44
2023-03-28T21:28:58.776Z,100969.00
2023-03-28T21:31:26.615Z,100966.09
2023-03-28T21:33:59.326Z,100962.97
2023-03-28T21:36:26.801Z,100955.81
2023-03-28T21:38:56.077Z,100970.63
2023-03-28T21:41:27.138Z,100973.13
2023-03-28T21:43:54.709Z,100969.13
2023-03-28T21:46:24.016Z,100959.31
2023-03-28T21:48:51.231Z,100973.25
2023-03-28T21:51:18.031Z,100974.47
2023-03-28T21:53:47.118Z,100975.03
2023-03-28T21:56:16.810Z,100979.47
2023-03-28T21:58:46.274Z,100983.28
2023-03-28T22:01:13.870Z,100992.97
2023-03-28T22:03:40.689Z,100996.66
2023-03-28T22:06:12.434Z,100993.94
2023-03-28T22:08:39.706Z,101005.31
2023-03-28T22:11:14.512Z,100999.31
2023-03-28T22:13:45.400Z,101010.47
2023-03-28T22:16:15.554Z,101012.06
2023-03-28T22:18:50.140Z,101019.97
2023-03-28T22:21:19.790Z,101016.19
2023-03-28T22:23:51.401Z,101023.66
2023-03-28T22:26:18.174Z,101034.78
2023-03-28T22:28:44.885Z,101041.28
2023-03-28T22:31:12.008Z,101048.41
2023-03-28T22:33:39.289Z,101048.97
2023-03-28T22:36:06.368Z,101052.19
2023-03-28T22:38:33.034Z,101047.97
2023-03-28T22:41:06.051Z,101045.84
2023-03-28T22:43:33.620Z,101046.94
2023-03-28T22:46:00.187Z,101045.28
2023-03-28T22:48:29.998Z,101041.69
2023-03-28T22:50:57.170Z,101042.81
2023-03-28T22:53:27.375Z,101034.69
2023-03-28T22:55:54.812Z,101037.13
2023-03-28T22:58:26.513Z,101039.47
2023-03-28T23:00:56.255Z,101033.69
2023-03-28T23:03:25.106Z,101037.69
2023-03-28T23:05:51.889Z,101040.38
2023-03-28T23:08:19.415Z,101032.31
2023-03-28T23:10:46.661Z,101033.88
2023-03-28T23:13:16.509Z,101039.22
2023-03-28T23:15:45.861Z,101039.34
2023-03-28T23:18:12.855Z,101049.25
2023-03-28T23:20:39.653Z,101062.44
2023-03-28T23:23:06.815Z,101065.78
2023-03-28T23:25:37.027Z,101070.34
2023-03-28T23:28:06.491Z,101069.59
2023-03-28T23:30:35.660Z,101085.28
2023-03-28T23:33:04.932Z,101073.81
2023-03-28T23:35:31.625Z,101086.50
2023-03-28T23:37:58.330Z,101080.16
2023-03-28T23:40:30.485Z,101083.59
2023-03-28T23:43:00.085Z,101082.81
2023-03-28T23:45:26.782Z,101098.03
2023-03-28T23:47:53.444Z,101095.19
2023-03-28T23:50:20.120Z,101103.78
2023-03-28T23:52:46.832Z,101098.56
2023-03-28T23:55:16.319Z,101100.28
2023-03-28T23:57:45.600Z,101113.50
